Chavenay-Villepreux Airfield

LFPX · Département des Yvelines, Région Île-de-France, France

METAR anciennes LFPX · Chavenay-Villepreux Airfield

Tu vois ci-dessous les METAR des derniers jours. Sélectionne une année pour parcourir les METAR plus anciens, à partir de l'année 2007.

22 avril 2024

Temps Code Temps Temp. Vue Base cloud Vent METAR/SPECI
04:00
V
3 °C 10 km+ - 350° 350° 7 kt METAR LFPN 220200Z AUTO 35007KT CAVOK 03/02 Q1025
03:30
V
3 °C 10 km+ - 360° 360° 7 kt METAR LFPN 220130Z AUTO 36007KT CAVOK 03/02 Q1025
03:00
V
3 °C 10 km+ - 340° 340° 7 kt METAR LFPN 220100Z AUTO 34007KT CAVOK 03/01 Q1025
02:30
V
4 °C 10 km+ - 360° 360° 8 kt METAR LFPN 220030Z AUTO 36008KT CAVOK 04/02 Q1025
02:00
V
4 °C 10 km+ - 360° 360° 8 kt METAR LFPN 220000Z AUTO 36008KT CAVOK 04/02 Q1025
01:30
V
5 °C 10 km+ - 010° 010° 7 kt METAR LFPN 212330Z AUTO 01007KT CAVOK 05/02 Q1025
01:00
V
5 °C 10 km+ - 010° 010° 9 kt METAR LFPN 212300Z AUTO 01009KT CAVOK 05/02 Q1025
00:30
V
5 °C 10 km+ - 360° 360° 9 kt METAR LFPN 212230Z AUTO 36009KT CAVOK 05/02 Q1025
00:00
V
5 °C 10 km+ - 340° 340° 8 kt METAR LFPN 212200Z AUTO 34008KT CAVOK 05/01 Q1025

21 avril 2024

Temps Code Temps Temp. Vue Base cloud Vent METAR/SPECI
23:30
V
5 °C 10 km+ - 350° 350° 8 kt METAR LFPN 212130Z AUTO 35008KT CAVOK 05/01 Q1025
23:00
V
5 °C 10 km+ - 360° 360° 6 kt METAR LFPN 212100Z AUTO 36006KT CAVOK 05/01 Q1025
22:30
V
6 °C 10 km+ - 360° 360° 6 kt METAR LFPN 212030Z AUTO 36006KT CAVOK 06/01 Q1025 NOSIG
22:00
V
6 °C 10 km+ - 360° 360° 6 kt METAR LFPN 212000Z AUTO 36006KT CAVOK 06/00 Q1025 NOSIG
21:30
V
8 °C 10 km+ - 020° 020° 8 kt METAR LFPN 211930Z AUTO 02008KT 350V050 CAVOK 08/M01 Q1025 NOSIG
21:00
V
8 °C 10 km+ - 030° 030° 8 kt METAR LFPN 211900Z AUTO 03008KT 010V070 CAVOK 08/M01 Q1025 NOSIG
20:30
V
9 °C 10 km+ - 040° 040° 12 kt METAR LFPN 211830Z AUTO 04012KT 010V070 CAVOK 09/M01 Q1024 NOSIG
20:00
V
9 °C 10 km+ - 020° 020° 14 kt METAR LFPN 211800Z AUTO 02014KT CAVOK 09/M01 Q1024 NOSIG
19:30
V
10 °C 10 km+ - 020° 020° 14 kt METAR LFPN 211730Z AUTO 02014KT 350V060 CAVOK 10/M01 Q1024 NOSIG
19:00
V
10 °C 10 km+ - 020° 020° 16 kt METAR LFPN 211700Z AUTO 02016KT 340V040 CAVOK 10/M00 Q1024 NOSIG
18:30
V
10 °C 10 km+ - 010° 010° 14 kt METAR LFPN 211630Z AUTO 01014KT CAVOK 10/M00 Q1024 NOSIG
18:00
V
9 °C 10 km+ - 030° 030° 15 kt METAR LFPN 211600Z AUTO 03015KT 360V060 CAVOK 09/M00 Q1024 TEMPO 01015G30KT
17:30
V
11 °C 10 km+ 5.600 ft 020° 020° 17 kt METAR LFPN 211530Z AUTO 02017KT 340V060 9999 FEW049 BKN056 11/01 Q1023 TEMPO 01015G30KT
17:00
V
10 °C 10 km+ - 020° 020° 18 kt METAR LFPN 211500Z AUTO 02018KT CAVOK 10/M00 Q1023 TEMPO 01015G30KT
16:30
V
11 °C 10 km+ - 010° 010° 18 kt METAR LFPN 211430Z AUTO 01018KT CAVOK 11/M01 Q1023 NOSIG
16:00
V
10 °C 10 km+ 5.000 ft 020° 020° 14 kt METAR LFPN 211400Z AUTO 02014KT 330V050 9999 FEW038 SCT044 BKN050 10/M01 Q1023 TEMPO 36015G30KT SCT030TCU
15:30
V
11 °C 10 km+ 3.500 ft 360° 360° 12 kt METAR LFPN 211330Z AUTO 36012KT 330V040 9999 BKN035 BKN049 BKN064 11/03 Q1023 TEMPO 36015G30KT SCT030TCU
15:00
V
9 °C 10 km+ 5.400 ft 330° 330° 13 kt METAR LFPN 211300Z AUTO 33013KT 9999 SCT020/// SCT027/// BKN054/// //////TCU 09/05 Q1023 TEMPO 36015G30KT
14:30
V
8 °C 9 km 3.700 ft 350° 350° 10 kt METAR LFPN 211230Z AUTO 35010KT 9000 FEW025/// BKN037/// BKN043/// ///TCU 08/06 Q1023 TEMPO 36015G30KT
14:00
V
8 °C 10 km+ 4.100 ft 010° 010° 14 kt METAR LFPN 211200Z AUTO 01014KT 9999 BKN041/// BKN047/// OVC054/// //////TCU 08/04 Q1024 TEMPO 36015G30KT
13:30
V
10 °C 10 km+ 4.200 ft 330° 330° 13 kt METAR LFPN 211130Z AUTO 33013KT 300V010 9999 BKN042 OVC052 10/02 Q1023 TEMPO 36015G30KT SCT030TCU
13:00
V
8 °C 10 km+ 4.900 ft 350° 350° 14 kt METAR LFPN 211100Z AUTO 35014KT 320V020 9999 SCT039 OVC049 08/00 Q1024 TEMPO 36015G30KT SCT030TCU
12:30
V
9 °C 10 km+ 4.600 ft 010° 010° 12 kt METAR LFPN 211030Z AUTO 01012KT 9999 SCT036 BKN046 BKN054 09/01 Q1024 TEMPO 36015G30KT SCT030TCU
12:00
V
8 °C 10 km+ 4.200 ft 360° 360° 11 kt METAR LFPN 211000Z AUTO 36011KT 330V040 9999 FEW035 BKN042 BKN048 08/00 Q1024 TEMPO 36015G30KT SCT030TCU
11:30
M
8 °C 10 km+ 2.900 ft 010° 010° 11 kt METAR LFPN 210930Z AUTO 01011KT 340V050 9999 BKN029 BKN038 BKN054 08/02 Q1024 TEMPO 36015G30KT SCT030TCU
11:00
M
7 °C 10 km+ 2.700 ft 350° 350° 12 kt METAR LFPN 210900Z AUTO 35012KT 9999 BKN027 BKN033 BKN039 07/02 Q1024 NOSIG
10:30
M
7 °C 10 km+ 2.300 ft 360° 360° 11 kt METAR LFPN 210830Z AUTO 36011KT 320V020 9999 BKN023 BKN030 BKN042 07/03 Q1025 TEMPO 36015G25KT FEW030TCU
10:00
V
6 °C 10 km+ 3.500 ft 360° 360° 9 kt METAR LFPN 210800Z AUTO 36009KT 9999 FEW020 BKN035 BKN042 06/03 Q1024 NOSIG
09:30
V
5 °C 10 km+ 3.400 ft 350° 350° 10 kt METAR LFPN 210730Z AUTO 35010KT 330V030 9999 FEW018 BKN034 BKN043 05/02 Q1025 NOSIG
09:00
V
5 °C 10 km+ 4.000 ft 350° 350° 9 kt METAR LFPN 210700Z AUTO 35009KT 9999 BKN040 OVC054 05/02 Q1025 NOSIG
08:30
V
4 °C 10 km+ 5.600 ft 340° 340° 8 kt METAR LFPN 210630Z AUTO 34008KT 9999 FEW039 SCT048 BKN056 04/02 Q1024 NOSIG
08:00
V
3 °C 10 km+ 4.900 ft 340° 340° 7 kt METAR LFPN 210600Z AUTO 34007KT 9999 OVC049 03/02 Q1024 NOSIG
07:30
V
1 °C 10 km+ 4.900 ft 330° 330° 7 kt METAR LFPN 210530Z AUTO 33007KT 9999 BKN049 01/00 Q1024 NOSIG
07:00
V
1 °C 10 km+ - 310° 310° 4 kt METAR LFPN 210500Z AUTO 31004KT CAVOK 01/00 Q1024
06:30
V
2 °C 10 km+ - 280° 280° 4 kt METAR LFPN 210430Z AUTO 28004KT CAVOK 02/00 Q1024
06:00
V
1 °C 10 km+ 9.200 ft 310° 310° 5 kt METAR LFPN 210400Z AUTO 31005KT 9999 FEW037 BKN092 01/01 Q1024
05:30
V
1 °C 10 km+ - 320° 320° 5 kt METAR LFPN 210330Z AUTO 32005KT 9999 FEW039 01/M00 Q1025
05:00
V
1 °C 10 km+ - 320° 320° 5 kt METAR LFPN 210300Z AUTO 32005KT 9999 FEW040 01/M00 Q1025
04:30
V
1 °C 10 km+ - 320° 320° 6 kt METAR LFPN 210230Z AUTO 32006KT CAVOK 01/00 Q1025
04:00
V
1 °C 10 km+ - 330° 330° 4 kt METAR LFPN 210200Z AUTO 33004KT CAVOK 01/00 Q1025
03:30
V
1 °C 10 km+ - 320° 320° 5 kt METAR LFPN 210130Z AUTO 32005KT CAVOK 01/00 Q1025
03:00
V
1 °C 10 km+ - 350° 350° 5 kt METAR LFPN 210100Z AUTO 35005KT CAVOK 01/00 Q1025
02:30
V
2 °C 10 km+ - 340° 340° 6 kt METAR LFPN 210030Z AUTO 34006KT CAVOK 02/00 Q1026
02:00
V
2 °C 10 km+ - 340° 340° 7 kt METAR LFPN 210000Z AUTO 34007KT CAVOK 02/01 Q1026
01:30
V
2 °C 10 km+ - 340° 340° 5 kt METAR LFPN 202330Z AUTO 34005KT CAVOK 02/01 Q1026
01:00
V
3 °C 10 km+ - 340° 340° 4 kt METAR LFPN 202300Z AUTO 34004KT CAVOK 03/01 Q1026
00:30
V
3 °C 10 km+ - 330° 330° 3 kt METAR LFPN 202230Z AUTO 33003KT CAVOK 03/01 Q1026
00:00
V
3 °C 10 km+ - 320° 320° 3 kt METAR LFPN 202200Z AUTO 32003KT 9999 FEW037 03/01 Q1027

20 avril 2024

Temps Code Temps Temp. Vue Base cloud Vent METAR/SPECI
23:30
V
3 °C 10 km+ - 320° 320° 3 kt METAR LFPN 202130Z AUTO 32003KT CAVOK 03/00 Q1027
23:00
V
4 °C 10 km+ - 330° 330° 4 kt METAR LFPN 202100Z AUTO 33004KT CAVOK 04/01 Q1026
22:30
V
5 °C 10 km+ - 330° 330° 5 kt METAR LFPN 202030Z AUTO 33005KT CAVOK 05/01 Q1026 NOSIG
22:00
V
5 °C 10 km+ - 340° 340° 5 kt METAR LFPN 202000Z AUTO 34005KT CAVOK 05/01 Q1026 NOSIG
21:30
V
6 °C 10 km+ - 350° 350° 6 kt METAR LFPN 201930Z AUTO 35006KT CAVOK 06/00 Q1026 NOSIG
21:00
V
7 °C 10 km+ - 350° 350° 10 kt METAR LFPN 201900Z AUTO 35010KT CAVOK 07/M00 Q1026 NOSIG
20:30
V
8 °C 10 km+ 5.400 ft 360° 360° 11 kt METAR LFPN 201830Z AUTO 36011KT 9999 SCT033 SCT042 OVC054 08/01 Q1026 NOSIG
20:00
V
8 °C 10 km+ - 360° 360° 9 kt METAR LFPN 201800Z AUTO 36009KT CAVOK 08/02 Q1026 NOSIG
19:30
V
8 °C 10 km+ 5.800 ft 360° 360° 11 kt METAR LFPN 201730Z AUTO 36011KT 9999 FEW030 OVC058 08/02 Q1026 NOSIG
19:00
V
9 °C 10 km+ 6.000 ft 360° 360° 13 kt METAR LFPN 201700Z AUTO 36013KT 330V030 9999 FEW031 OVC060 09/02 Q1025 NOSIG
18:30
V
9 °C 10 km+ 6.000 ft 360° 360° 14 kt METAR LFPN 201630Z AUTO 36014KT 9999 FEW031 OVC060 09/02 Q1025 NOSIG
18:00
V
10 °C 10 km+ 6.000 ft 350° 350° 13 kt METAR LFPN 201600Z AUTO 35013KT 9999 FEW038 OVC060 10/02 Q1025 TEMPO 36015G25KT
17:30
V
9 °C 10 km+ 4.500 ft 340° 340° 13 kt METAR LFPN 201530Z AUTO 34013KT 9999 FEW039 BKN045 BKN052 09/02 Q1025 TEMPO 36015G25KT
17:00
V
10 °C 10 km+ 4.800 ft 360° 360° 10 kt METAR LFPN 201500Z AUTO 36010KT 330V040 9999 SCT041 BKN048 OVC062 10/01 Q1025 TEMPO 36015G25KT
16:30
V
10 °C 10 km+ 6.200 ft 350° 350° 11 kt METAR LFPN 201430Z AUTO 35011KT 310V020 9999 SCT044 OVC062 10/01 Q1025 TEMPO 36015G25KT
16:00
V
12 °C 10 km+ 5.200 ft 340° 340° 12 kt METAR LFPN 201400Z AUTO 34012KT 310V010 9999 SCT042 BKN052 OVC066 12/02 Q1025 TEMPO 36015G25KT
15:30
V
11 °C 10 km+ 6.400 ft 340° 340° 11 kt METAR LFPN 201330Z AUTO 34011KT 310V010 9999 FEW033 OVC064 11/03 Q1025 TEMPO 36015G25KT
15:00
V
9 °C 10 km+ 6.200 ft 010° 010° 11 kt METAR LFPN 201300Z AUTO 01011KT 340V040 9999 FEW032 OVC062 09/03 Q1026 TEMPO 36015G25KT
14:30
V
9 °C 10 km+ 3.500 ft 360° 360° 11 kt METAR LFPN 201230Z AUTO 36011KT 9999 BKN035 OVC044 09/02 Q1026 TEMPO 36015G25KT
14:00
V
10 °C 10 km+ 3.600 ft 340° 340° 10 kt METAR LFPN 201200Z AUTO 34010KT 9999 BKN036 OVC060 10/02 Q1025 TEMPO 36015G25KT
13:30
V
9 °C 10 km+ 3.700 ft 350° 350° 9 kt METAR LFPN 201130Z AUTO 35009KT 9999 BKN037 BKN045 OVC062 09/02 Q1025 TEMPO 36015G25KT
13:00
V
9 °C 10 km+ 3.700 ft 340° 340° 9 kt METAR LFPN 201100Z AUTO 34009KT 320V020 9999 BKN037 OVC056 09/02 Q1025 NOSIG
12:30
V
8 °C 10 km+ 5.800 ft 350° 350° 7 kt METAR LFPN 201030Z AUTO 35007KT 320V040 9999 FEW032 SCT049 OVC058 08/00 Q1025 NOSIG
12:00
V
8 °C 10 km+ 5.800 ft 360° 360° 10 kt METAR LFPN 201000Z AUTO 36010KT 9999 FEW035 SCT044 OVC058 08/01 Q1025 NOSIG
11:30
V
8 °C 10 km+ 3.100 ft 340° 340° 11 kt METAR LFPN 200930Z AUTO 34011KT 9999 BKN031 BKN058 08/02 Q1025 NOSIG
11:00
V
8 °C 10 km+ 5.800 ft 360° 360° 11 kt METAR LFPN 200900Z AUTO 36011KT 330V030 9999 SCT028 BKN058 08/02 Q1025 NOSIG
10:30
V
8 °C 10 km+ 6.000 ft 350° 350° 11 kt METAR LFPN 200830Z AUTO 35011KT 310V020 9999 FEW028 BKN060 08/02 Q1025 NOSIG
10:00
V
7 °C 10 km+ - 360° 360° 11 kt METAR LFPN 200800Z AUTO 36011KT 9999 SCT025 07/02 Q1025 NOSIG
09:30
V
7 °C 10 km+ - 360° 360° 12 kt METAR LFPN 200730Z AUTO 36012KT 9999 FEW024 07/02 Q1024 NOSIG
09:00
V
6 °C 10 km+ - 360° 360° 10 kt METAR LFPN 200700Z AUTO 36010KT CAVOK 06/03 Q1024 NOSIG
08:30
V
5 °C 10 km+ - 350° 350° 8 kt METAR LFPN 200630Z AUTO 35008KT CAVOK 05/02 Q1024 NOSIG
08:00
V
4 °C 10 km+ - 340° 340° 6 kt METAR LFPN 200600Z AUTO 34006KT CAVOK 04/03 Q1024 NOSIG
07:30
V
3 °C 10 km+ - 330° 330° 6 kt METAR LFPN 200530Z AUTO 33006KT 9999 FEW045 03/02 Q1023
07:00
V
2 °C 10 km+ 4.400 ft 330° 330° 4 kt METAR LFPN 200500Z AUTO 33004KT 9999 BKN044 02/02 Q1023
06:30
V
2 °C 10 km+ - 330° 330° 6 kt METAR LFPN 200430Z AUTO 33006KT 9999 FEW045 02/01 Q1023
06:00
V
2 °C 10 km+ - 320° 320° 5 kt METAR LFPN 200400Z AUTO 32005KT CAVOK 02/02 Q1022
05:30
V
2 °C 10 km+ - 320° 320° 5 kt METAR LFPN 200330Z AUTO 32005KT 9999 FEW033 02/01 Q1022
05:00
V
3 °C 10 km+ - 340° 340° 5 kt METAR LFPN 200300Z AUTO 34005KT CAVOK 03/02 Q1022
04:30
V
3 °C 10 km+ - 330° 330° 6 kt METAR LFPN 200230Z AUTO 33006KT CAVOK 03/03 Q1022
04:00
V
3 °C 10 km+ - 320° 320° 5 kt METAR LFPN 200200Z AUTO 32005KT CAVOK 03/02 Q1022
03:30
V
3 °C 10 km+ - 320° 320° 3 kt METAR LFPN 200130Z AUTO 32003KT CAVOK 03/02 Q1021
03:00
V
3 °C 10 km+ - 310° 310° 4 kt METAR LFPN 200100Z AUTO 31004KT CAVOK 03/03 Q1021
02:30
V
4 °C 10 km+ - 320° 320° 5 kt METAR LFPN 200030Z AUTO 32005KT CAVOK 04/03 Q1021
02:00
V
4 °C 10 km+ - 320° 320° 4 kt METAR LFPN 200000Z AUTO 32004KT CAVOK 04/03 Q1021
01:30
V
5 °C 10 km+ - 290° 290° 4 kt METAR LFPN 192330Z AUTO 29004KT CAVOK 05/04 Q1021
01:00
V
6 °C 10 km+ 7.800 ft Var Var 2 kt METAR LFPN 192300Z AUTO VRB02KT 9999 FEW020 BKN078 06/05 Q1021
00:30
M
7 °C 10 km+ 2.500 ft 020° 020° 6 kt METAR LFPN 192230Z AUTO 02006KT 9999 SCT018 BKN025 BKN140 07/05 Q1021
00:00
M
7 °C 10 km+ 2.400 ft 010° 010° 8 kt METAR LFPN 192200Z AUTO 01008KT 9999 FEW017 BKN024 BKN032 07/05 Q1021

19 avril 2024

Temps Code Temps Temp. Vue Base cloud Vent METAR/SPECI
23:30
V
8 °C 10 km+ 3.300 ft 010° 010° 7 kt METAR LFPN 192130Z AUTO 01007KT 340V060 9999 FEW017 SCT027 BKN033 08/06 Q1020
23:00
M
9 °C 10 km+ 2.100 ft 360° 360° 7 kt METAR LFPN 192100Z AUTO 36007KT 9999 FEW015 BKN021 BKN028 09/07 Q1020
22:30
V
8 °C 10 km+ 6.200 ft 340° 340° 7 kt METAR LFPN 192030Z AUTO 34007KT 9999 SCT028 BKN062 OVC072 08/08 Q1019 NOSIG
22:00
V
9 °C 10 km+ 5.000 ft 340° 340° 8 kt METAR LFPN 192000Z AUTO 34008KT 9999 FEW017 SCT026 BKN050 09/08 Q1019 NOSIG
21:30
V
9 °C 10 km+ 4.500 ft 340° 340° 8 kt METAR LFPN 191930Z AUTO 34008KT 9999 FEW017 BKN045 OVC062 09/08 Q1018 NOSIG
21:00
V
10 °C 10 km+ 6.200 ft 350° 350° 9 kt METAR LFPN 191900Z AUTO 35009KT 9999 FEW012/// SCT036/// BKN062/// //////TCU 10/09 Q1018 BECMG SCT020 BKN040
20:30
I
10 °C 3,7 km 1.500 ft 340° 340° 8 kt METAR LFPN 191830Z AUTO 34008KT 290V020 3700 +RA BR BKN015/// BKN023/// BKN035/// //////CB 10/09 Q1017 BECMG 9999 NSW SCT020 BKN040
20:00
M
11 °C 10 km+ 1.800 ft 300° 300° 11 kt METAR LFPN 191800Z AUTO 30011KT 9999 BKN018/// BKN023/// OVC028/// ///TCU 11/08 Q1017 TEMPO 4500 SHRA FEW010 BKN020CB BECMG 36008KT
19:30
M
11 °C 10 km+ 2.600 ft 290° 290° 14 kt METAR LFPN 191730Z AUTO 29014KT 9999 BKN026/// BKN033/// OVC042/// //////CB 11/08 Q1017 TEMPO 32015G25KT 4500 SHRA BECMG SCT015 BKN025
19:00
M
11 °C 10 km+ 2.700 ft 290° 290° 13 kt METAR LFPN 191700Z AUTO 29013KT 9999 FEW020/// BKN027/// BKN042/// ///CB 11/08 Q1017 TEMPO 32015G25KT 4500 SHRA
18:30
M
11 °C 10 km+ 2.100 ft 300° 300° 14 kt METAR LFPN 191630Z AUTO 30014KT 9999 BKN021 BKN047 OVC056 11/08 Q1017 TEMPO 32015G25KT 4500 SHRA FEW010 BKN020TCU
18:00
V
11 °C 10 km+ 3.600 ft 300° 300° 15 kt METAR LFPN 191600Z AUTO 30015KT 9999 FEW020 SCT029 BKN036 11/08 Q1017 TEMPO 32015G25KT 4500 SHRA FEW010 BKN020TCU
17:30
M
11 °C 10 km+ 1.900 ft 300° 300° 16 kt METAR LFPN 191530Z AUTO 30016KT 9999 OVC019 11/08 Q1017 TEMPO 32015G25KT 4500 SHRA FEW010 BKN020TCU
17:00
M
11 °C 10 km+ 1.700 ft 310° 310° 14 kt METAR LFPN 191500Z AUTO 31014KT 280V340 9999 -DZ BKN017 OVC023 11/08 Q1017 TEMPO 32015G25KT
16:30
M
11 °C 10 km+ 1.400 ft 310° 310° 15 kt METAR LFPN 191430Z AUTO 31015KT 9999 -DZ BKN014 BKN021 OVC026 11/09 Q1017 TEMPO 32015G25KT BECMG SCT015 BKN025
16:00
M
11 °C 10 km+ 1.600 ft 290° 290° 14 kt METAR LFPN 191400Z AUTO 29014KT 9999 BKN016 BKN022 OVC028 11/08 Q1017 TEMPO 29015G25KT BKN014
15:30
M
11 °C 10 km+ 1.300 ft 290° 290° 14 kt METAR LFPN 191330Z AUTO 29014KT 9999 BKN013 OVC021 11/08 Q1017 TEMPO 29015G25KT
15:00
M
12 °C 10 km+ 1.700 ft 290° 290° 15 kt METAR LFPN 191300Z AUTO 29015KT 9999 BKN017 OVC022 12/09 Q1017 TEMPO 29015G25KT BKN014
14:30
M
11 °C 10 km+ 1.900 ft 290° 290° 15 - 25 kt METAR LFPN 191230Z AUTO 29015G25KT 9999 OVC019 11/08 Q1017 TEMPO BKN014
14:00
M
12 °C 10 km+ 2.000 ft 290° 290° 14 kt METAR LFPN 191200Z AUTO 29014KT 9999 OVC020 12/07 Q1017 TEMPO 29015G25KT BKN014
13:30
M
12 °C 10 km+ 2.000 ft 280° 280° 13 kt METAR LFPN 191130Z AUTO 28013KT 9999 OVC020 12/08 Q1017 TEMPO 29015G25KT BKN014
13:00
M
12 °C 10 km+ 1.900 ft 280° 280° 14 kt METAR LFPN 191100Z AUTO 28014KT 240V300 9999 OVC019 12/07 Q1018 TEMPO BKN014
12:30
M
11 °C 10 km+ 1.800 ft 280° 280° 14 kt METAR LFPN 191030Z AUTO 28014KT 240V300 9999 OVC018 11/07 Q1018 TEMPO BKN014
12:00
M
11 °C 10 km+ 1.800 ft 290° 290° 13 kt METAR LFPN 191000Z AUTO 29013KT 9999 OVC018 11/07 Q1018 TEMPO BKN014
11:30
M
11 °C 10 km+ 1.700 ft 270° 270° 9 kt METAR LFPN 190930Z AUTO 27009KT 240V300 9999 OVC017/// 11/07 Q1018 TEMPO BKN014
11:00
M
10 °C 10 km+ 1.600 ft 280° 280° 11 kt METAR LFPN 190900Z AUTO 28011KT 9999 OVC016/// 10/06 Q1018 TEMPO BKN014
10:30
M
10 °C 10 km+ 1.600 ft 280° 280° 13 kt METAR LFPN 190830Z AUTO 28013KT 250V310 9999 OVC016 10/06 Q1018 TEMPO BKN014
10:00
M
9 °C 10 km+ 1.600 ft 280° 280° 12 kt METAR LFPN 190800Z AUTO 28012KT 9999 OVC016 09/06 Q1019 TEMPO BKN014
09:30
M
8 °C 10 km+ 2.700 ft 280° 280° 11 kt METAR LFPN 190730Z AUTO 28011KT 9999 SCT017 OVC027 08/05 Q1019 TEMPO BKN014
09:00
M
8 °C 10 km+ 2.700 ft 280° 280° 12 kt METAR LFPN 190700Z AUTO 28012KT 240V300 9999 SCT017 BKN027 BKN064 08/05 Q1019 NOSIG
08:30
V
8 °C 10 km+ 6.600 ft 270° 270° 10 kt METAR LFPN 190630Z AUTO 27010KT 9999 FEW019 BKN066 OVC086 08/05 Q1019 NOSIG
08:00
V
8 °C 10 km+ - 280° 280° 9 kt METAR LFPN 190600Z AUTO 28009KT CAVOK 08/04 Q1019 NOSIG
Signaler les modifications